Time;durP1;ratioP1;P1;durP2;ratioP2;P2;SDS_P1;SDS_P2;PMS_P1;PMS_P2;Temp;Humidity;BMP_temperature;BMP_pressure;BME280_temperature;BME280_humidity;BME280_pressure;Samples;Min_cycle;Max_cycle;Signal;HPM_P1;HPM_P2
2022/12/13 00:01:44;;;;;;;11.40;7.35;;;-3.10;96.20;;;;;;5089498;28;20025;-64
2022/12/13 00:04:10;;;;;;;15.75;8.57;;;-3.10;96.20;;;;;;5092458;28;20035;-64
2022/12/13 00:06:35;;;;;;;15.35;7.90;;;-3.10;96.20;;;;;;5069951;28;20019;-64
2022/12/13 00:09:03;;;;;;;15.73;8.93;;;-3.10;96.30;;;;;;5089468;28;20030;-65
2022/12/13 00:11:29;;;;;;;14.98;8.25;;;-3.10;96.30;;;;;;5091970;28;20036;-64
2022/12/13 00:13:55;;;;;;;15.18;8.27;;;-3.20;96.30;;;;;;5089224;28;20560;-64
2022/12/13 00:16:22;;;;;;;17.27;8.88;;;-3.20;96.30;;;;;;5091826;28;20019;-64
2022/12/13 00:18:54;;;;;;;16.40;9.50;;;-3.20;96.30;;;;;;5098440;27;20317;-64
2022/12/13 00:21:22;;;;;;;15.55;8.85;;;-3.20;96.40;;;;;;5091632;28;20078;-65
2022/12/13 00:23:48;;;;;;;18.15;9.65;;;-3.20;96.40;;;;;;5088981;28;20042;-64
2022/12/13 00:26:19;;;;;;;16.58;9.82;;;-3.20;96.40;;;;;;5091488;28;20481;-64
2022/12/13 00:28:48;;;;;;;18.92;10.38;;;-3.30;96.50;;;;;;5073393;28;20055;-64
2022/12/13 00:31:14;;;;;;;19.60;9.85;;;-3.40;96.60;;;;;;5092416;28;20024;-63
2022/12/13 00:33:40;;;;;;;19.33;10.20;;;-3.40;96.70;;;;;;5094352;28;20028;-62
2022/12/13 00:36:06;;;;;;;16.45;9.65;;;-3.40;96.70;;;;;;5093951;28;20036;-64
2022/12/13 00:38:33;;;;;;;15.60;8.82;;;-3.40;96.80;;;;;;5087987;28;20414;-64
2022/12/13 00:41:07;;;;;;;14.23;8.38;;;-3.40;96.90;;;;;;5090790;28;20040;-64
2022/12/13 00:43:33;;;;;;;16.50;8.93;;;-3.40;97.00;;;;;;5091033;28;20024;-64
2022/12/13 00:45:58;;;;;;;13.95;8.27;;;-3.40;97.00;;;;;;5091604;28;20039;-64
2022/12/13 00:48:24;;;;;;;14.77;8.05;;;-3.50;97.00;;;;;;5091037;28;20032;-64
2022/12/13 00:50:49;;;;;;;16.35;10.00;;;-3.40;97.10;;;;;;5090840;28;20027;-64
2022/12/13 00:53:15;;;;;;;21.60;10.68;;;-3.50;97.10;;;;;;5091409;28;20393;-64
2022/12/13 00:55:41;;;;;;;18.45;8.77;;;-3.40;97.20;;;;;;5096713;28;20027;-64
2022/12/13 00:58:06;;;;;;;15.52;9.10;;;-3.50;97.20;;;;;;5093910;28;20089;-64
2022/12/13 01:00:32;;;;;;;18.70;9.98;;;-3.50;97.20;;;;;;5089787;28;20092;-64
2022/12/13 01:02:57;;;;;;;18.05;9.70;;;-3.50;97.10;;;;;;5073778;28;20027;-64
2022/12/13 01:05:23;;;;;;;18.83;10.25;;;-3.50;97.30;;;;;;5088592;28;20456;-64
2022/12/13 01:07:48;;;;;;;15.35;8.68;;;-3.60;97.40;;;;;;5093460;28;20106;-64
2022/12/13 01:10:14;;;;;;;16.23;8.55;;;-3.60;97.50;;;;;;5116212;27;20024;-64
2022/12/13 01:12:39;;;;;;;18.98;9.55;;;-3.60;97.50;;;;;;5089135;28;20836;-64
2022/12/13 01:15:06;;;;;;;14.98;8.45;;;-3.60;97.50;;;;;;5072122;28;20024;-64
2022/12/13 01:17:34;;;;;;;19.17;10.20;;;-3.60;97.60;;;;;;5085542;28;20028;-64
2022/12/13 01:19:59;;;;;;;19.00;8.50;;;-3.60;97.60;;;;;;5087958;28;20549;-63
2022/12/13 01:22:25;;;;;;;18.30;9.88;;;-3.60;97.60;;;;;;5091349;28;20036;-65
2022/12/13 01:24:50;;;;;;;18.17;9.57;;;-3.60;97.60;;;;;;5074525;28;20027;-64
2022/12/13 01:27:16;;;;;;;16.17;9.23;;;-3.60;97.60;;;;;;5057126;28;20036;-64
2022/12/13 01:29:42;;;;;;;16.38;8.82;;;-3.60;97.60;;;;;;5090919;28;20031;-64
2022/12/13 01:32:07;;;;;;;17.45;9.23;;;-3.60;97.70;;;;;;5087963;28;20099;-64
2022/12/13 01:34:33;;;;;;;19.20;10.07;;;-3.60;97.70;;;;;;5095104;28;20075;-64
2022/12/13 01:36:58;;;;;;;16.73;9.70;;;-3.60;97.70;;;;;;5089520;28;20114;-64
2022/12/13 01:39:24;;;;;;;17.60;9.65;;;-3.60;97.70;;;;;;5090778;28;20032;-65
2022/12/13 01:41:55;;;;;;;19.67;10.23;;;-3.70;97.70;;;;;;5093578;28;20031;-64
2022/12/13 01:44:56;;;;;;;17.88;9.85;;;-3.70;97.80;;;;;;5088434;28;20036;-64
2022/12/13 01:47:55;;;;;;;17.67;9.57;;;-3.70;97.90;;;;;;5093858;28;20367;-64
2022/12/13 01:50:33;;;;;;;15.75;8.75;;;-3.70;98.00;;;;;;5088451;28;20077;-64
2022/12/13 01:52:59;;;;;;;19.90;9.48;;;-3.80;98.00;;;;;;5091934;28;20028;-63
2022/12/13 01:55:28;;;;;;;19.40;10.63;;;-3.80;98.00;;;;;;5075797;28;20063;-63
2022/12/13 01:57:57;;;;;;;21.27;12.00;;;-3.80;98.00;;;;;;5093447;28;20024;-65
2022/12/13 02:00:25;;;;;;;22.05;12.07;;;-3.90;98.10;;;;;;5095336;28;20046;-64
2022/12/13 02:02:52;;;;;;;19.73;10.65;;;-3.90;98.20;;;;;;5094277;28;20020;-64
2022/12/13 02:05:35;;;;;;;19.13;11.48;;;-3.90;98.30;;;;;;5090804;28;20032;-64
2022/12/13 02:08:03;;;;;;;21.33;10.90;;;-3.90;98.50;;;;;;5089950;28;20028;-64
2022/12/13 02:10:30;;;;;;;19.15;9.95;;;-4.00;98.50;;;;;;5076036;28;20499;-64
2022/12/13 02:12:57;;;;;;;15.65;9.50;;;-4.00;98.60;;;;;;5088442;28;20024;-63
2022/12/13 02:15:25;;;;;;;17.98;9.88;;;-4.00;98.70;;;;;;5093874;28;20114;-66
2022/12/13 02:17:58;;;;;;;18.30;9.27;;;-3.90;98.70;;;;;;5090720;28;20036;-64
2022/12/13 02:20:32;;;;;;;18.52;10.63;;;-3.90;98.80;;;;;;5069454;28;20032;-64
2022/12/13 02:23:22;;;;;;;17.48;9.05;;;-4.00;98.80;;;;;;5094665;28;20020;-65
2022/12/13 02:26:25;;;;;;;15.55;8.48;;;-4.00;98.90;;;;;;5093008;28;20035;-63
2022/12/13 02:29:22;;;;;;;18.38;9.63;;;-4.00;98.90;;;;;;5089401;28;20031;-63
2022/12/13 02:32:26;;;;;;;15.45;8.10;;;-4.00;98.90;;;;;;5093721;28;20460;-63
2022/12/13 02:35:09;;;;;;;18.77;9.43;;;-4.00;98.90;;;;;;5090359;28;20051;-64
2022/12/13 02:38:08;;;;;;;17.38;8.25;;;-4.00;99.00;;;;;;5096029;28;20044;-64
2022/12/13 02:40:51;;;;;;;15.20;8.63;;;-4.00;99.00;;;;;;5095067;27;20023;-64
2022/12/13 02:43:25;;;;;;;16.02;9.18;;;-4.00;99.10;;;;;;5096571;28;20046;-64
2022/12/13 02:45:56;;;;;;;17.15;9.82;;;-4.00;99.10;;;;;;5096774;28;20492;-63
2022/12/13 02:48:26;;;;;;;16.30;8.98;;;-4.00;99.10;;;;;;5090720;28;20059;-64
2022/12/13 02:50:53;;;;;;;17.42;9.65;;;-4.00;99.10;;;;;;5093431;28;20020;-63
2022/12/13 02:53:21;;;;;;;17.65;9.73;;;-4.00;99.20;;;;;;5091112;28;20029;-64
2022/12/13 02:55:47;;;;;;;15.63;9.55;;;-4.00;99.20;;;;;;5072507;28;20131;-63
2022/12/13 02:58:16;;;;;;;18.77;9.60;;;-4.00;99.20;;;;;;5094656;28;20107;-64
2022/12/13 03:00:53;;;;;;;17.93;9.70;;;-4.10;99.30;;;;;;5090365;28;20012;-64
2022/12/13 03:03:54;;;;;;;19.15;9.60;;;-4.10;99.30;;;;;;5091629;28;20389;-64
2022/12/13 03:06:31;;;;;;;17.95;9.70;;;-4.00;99.40;;;;;;5084219;28;20493;-63
2022/12/13 03:09:08;;;;;;;18.13;9.18;;;-4.10;99.40;;;;;;5093515;28;20355;-63
2022/12/13 03:15:02;;;;;;;18.55;9.65;;;-4.10;99.40;;;;;;5092938;28;20076;-63
2022/12/13 03:17:32;;;;;;;;;;;-4.10;99.50;;;;;;5093294;28;20024;-63
2022/12/13 03:19:57;;;;;;;18.02;8.80;;;-4.20;99.50;;;;;;5095484;28;19912;-63
2022/12/13 03:22:23;;;;;;;17.85;8.65;;;-4.20;99.60;;;;;;5092453;28;20058;-63
2022/12/13 03:24:50;;;;;;;18.60;9.18;;;-4.20;99.60;;;;;;5095664;28;20523;-64
2022/12/13 03:27:16;;;;;;;18.27;9.48;;;-4.20;99.60;;;;;;5091203;28;20024;-63
2022/12/13 03:29:41;;;;;;;16.13;8.25;;;-4.20;99.80;;;;;;5090173;28;20031;-63
2022/12/13 03:32:07;;;;;;;13.52;8.18;;;-4.30;99.80;;;;;;5090238;28;20024;-62
2022/12/13 03:34:32;;;;;;;15.70;9.13;;;-4.30;99.80;;;;;;5098126;28;20062;-63
2022/12/13 03:36:58;;;;;;;14.80;8.77;;;-4.20;99.90;;;;;;5073765;28;20133;-63
2022/12/13 03:39:23;;;;;;;16.98;8.77;;;-4.30;99.90;;;;;;5090929;28;20485;-64
2022/12/13 03:41:49;;;;;;;16.10;8.90;;;-4.20;99.90;;;;;;5088895;28;20094;-64
2022/12/13 03:44:15;;;;;;;16.20;8.43;;;-4.30;99.90;;;;;;5096695;28;20057;-63
2022/12/13 03:46:40;;;;;;;17.50;10.15;;;-4.20;99.90;;;;;;5113937;27;20027;-64
2022/12/13 03:49:05;;;;;;;18.75;9.27;;;-4.20;99.90;;;;;;5111984;27;20123;-63
2022/12/13 03:51:31;;;;;;;18.15;9.98;;;-4.30;99.90;;;;;;5089946;28;20024;-63
2022/12/13 03:53:57;;;;;;;22.45;10.57;;;-4.30;99.90;;;;;;5071366;28;20028;-64
2022/12/13 03:56:22;;;;;;;19.63;9.60;;;-4.30;99.90;;;;;;5093826;28;20099;-63
2022/12/13 03:58:48;;;;;;;19.30;9.48;;;-4.30;99.90;;;;;;5089825;28;20035;-63
2022/12/13 04:01:15;;;;;;;17.95;9.35;;;-4.30;99.90;;;;;;5089864;28;20079;-64
2022/12/13 04:03:43;;;;;;;19.77;10.02;;;-4.40;99.90;;;;;;5092692;28;20381;-63
2022/12/13 04:06:10;;;;;;;21.17;9.88;;;-4.40;99.90;;;;;;5092564;28;20032;-65
2022/12/13 04:08:37;;;;;;;23.15;11.10;;;-4.40;99.90;;;;;;5070944;28;20404;-64
2022/12/13 04:13:31;;;;;;;17.35;9.95;;;-4.50;99.90;;;;;;5092232;28;20095;-63
2022/12/13 04:13:49;;;;;;;18.92;9.43;;;-4.50;99.90;;;;;;5089380;28;20036;-62
2022/12/13 04:16:14;;;;;;;18.27;9.48;;;-4.50;99.90;;;;;;5068053;28;20017;-63
2022/12/13 04:18:40;;;;;;;15.27;8.05;;;-4.50;99.90;;;;;;5093231;28;20384;-63
2022/12/13 04:21:05;;;;;;;17.63;9.32;;;-4.50;99.90;;;;;;5090393;28;20036;-63
2022/12/13 04:23:31;;;;;;;17.38;9.00;;;-4.50;99.90;;;;;;5092067;28;20031;-64
2022/12/13 04:25:58;;;;;;;19.00;10.15;;;-4.50;99.90;;;;;;5095775;28;20523;-63
2022/12/13 04:28:24;;;;;;;17.50;9.48;;;-4.50;99.90;;;;;;5093586;28;20035;-63
2022/12/13 04:30:50;;;;;;;18.83;9.90;;;-4.50;99.90;;;;;;5091899;28;20019;-63
2022/12/13 04:33:16;;;;;;;18.20;10.07;;;-4.50;99.90;;;;;;5070764;28;20028;-63
2022/12/13 04:35:41;;;;;;;14.57;8.13;;;-4.50;99.90;;;;;;5091361;28;20104;-64
2022/12/13 04:38:07;;;;;;;18.00;9.80;;;-4.50;99.90;;;;;;5091762;28;20127;-64
2022/12/13 04:40:32;;;;;;;18.95;9.77;;;-4.50;99.90;;;;;;5091489;28;20506;-63
2022/12/13 04:42:58;;;;;;;22.17;9.52;;;-4.50;99.90;;;;;;5106806;27;20020;-63
2022/12/13 04:45:23;;;;;;;21.17;10.43;;;-4.50;99.90;;;;;;5073310;28;20031;-62
2022/12/13 04:47:49;;;;;;;16.67;9.68;;;-4.50;99.90;;;;;;5088163;28;20035;-63
2022/12/13 04:50:15;;;;;;;20.70;10.30;;;-4.50;99.90;;;;;;5094356;28;20095;-63
2022/12/13 04:52:41;;;;;;;20.05;10.25;;;-4.50;99.90;;;;;;5090309;28;20022;-63
2022/12/13 04:55:07;;;;;;;19.58;10.20;;;-4.50;99.90;;;;;;5070260;28;20074;-63
2022/12/13 04:57:34;;;;;;;17.13;9.27;;;-4.50;99.90;;;;;;5084541;28;20107;-63
2022/12/13 04:59:59;;;;;;;17.45;9.85;;;-4.50;99.90;;;;;;5085854;28;20031;-63
2022/12/13 05:02:25;;;;;;;18.60;9.18;;;-4.60;99.90;;;;;;5092019;28;20028;-63
2022/12/13 05:04:51;;;;;;;17.63;9.50;;;-4.50;99.90;;;;;;5090945;28;20031;-63
2022/12/13 05:07:16;;;;;;;19.92;10.70;;;-4.50;99.90;;;;;;5093461;28;20020;-63
2022/12/13 05:09:42;;;;;;;19.00;9.95;;;-4.50;99.90;;;;;;5094021;28;20023;-63
2022/12/13 05:12:08;;;;;;;16.02;8.55;;;-4.50;99.90;;;;;;5090821;28;20117;-63
2022/12/13 05:14:33;;;;;;;17.10;10.10;;;-4.60;99.90;;;;;;5091203;28;20096;-63
2022/12/13 05:17:00;;;;;;;17.65;9.30;;;-4.60;99.90;;;;;;5088403;28;20024;-63
2022/12/13 05:19:25;;;;;;;20.90;9.35;;;-4.60;99.90;;;;;;5088401;28;20024;-63
2022/12/13 05:21:51;;;;;;;14.27;8.15;;;-4.60;99.90;;;;;;5090432;28;20024;-63
2022/12/13 05:24:16;;;;;;;16.05;8.80;;;-4.60;99.90;;;;;;5086571;28;20481;-65
2022/12/13 05:26:42;;;;;;;17.92;9.27;;;-4.60;99.90;;;;;;5090843;28;20020;-63
2022/12/13 05:29:08;;;;;;;15.93;8.27;;;-4.60;99.90;;;;;;5088049;28;20055;-63
2022/12/13 05:31:34;;;;;;;18.40;9.70;;;-4.60;99.90;;;;;;5094151;28;20069;-64
2022/12/13 05:34:00;;;;;;;19.50;9.13;;;-4.60;99.90;;;;;;5070332;28;20040;-62
2022/12/13 05:36:25;;;;;;;15.77;8.48;;;-4.60;99.90;;;;;;5090642;28;20111;-63
2022/12/13 05:38:52;;;;;;;17.38;9.18;;;-4.60;99.90;;;;;;5088061;28;20052;-63
2022/12/13 05:41:22;;;;;;;16.25;9.25;;;-4.60;99.90;;;;;;5093397;28;20027;-63
2022/12/13 05:43:47;;;;;;;16.52;9.35;;;-4.60;99.90;;;;;;5089817;28;20020;-63
2022/12/13 05:46:13;;;;;;;19.60;9.45;;;-4.60;99.90;;;;;;5072525;28;20109;-63
2022/12/13 05:48:39;;;;;;;16.33;8.60;;;-4.60;99.90;;;;;;5090849;28;20028;-63
2022/12/13 05:51:05;;;;;;;17.23;9.32;;;-4.70;99.90;;;;;;5089293;28;20561;-63
2022/12/13 05:53:31;;;;;;;17.50;9.00;;;-4.70;99.90;;;;;;5091254;28;20020;-63
2022/12/13 05:56:00;;;;;;;15.35;8.15;;;-4.60;99.90;;;;;;5093898;28;20027;-62
2022/12/13 05:58:26;;;;;;;19.77;10.73;;;-4.60;99.90;;;;;;5089779;28;20031;-63
2022/12/13 06:00:51;;;;;;;18.85;9.27;;;-4.70;99.90;;;;;;5069812;28;20082;-63
2022/12/13 06:03:17;;;;;;;19.50;9.63;;;-4.70;99.90;;;;;;5090422;28;20032;-63
2022/12/13 06:05:43;;;;;;;18.27;9.35;;;-4.70;99.90;;;;;;5094083;28;20028;-63
2022/12/13 06:08:09;;;;;;;15.68;8.27;;;-4.60;99.90;;;;;;5097787;28;20088;-62
2022/12/13 06:10:35;;;;;;;19.63;10.73;;;-4.70;99.90;;;;;;5094563;27;20030;-63
2022/12/13 06:13:04;;;;;;;18.52;9.55;;;-4.60;99.90;;;;;;5094884;28;20020;-63
2022/12/13 06:15:30;;;;;;;16.48;9.27;;;-4.60;99.90;;;;;;5094717;28;20040;-62
2022/12/13 06:17:58;;;;;;;19.65;10.20;;;-4.60;99.90;;;;;;5091406;28;20027;-62
2022/12/13 06:20:24;;;;;;;18.65;10.18;;;-4.60;99.90;;;;;;5093119;28;20530;-62
2022/12/13 06:22:49;;;;;;;19.80;9.60;;;-4.70;99.90;;;;;;5086898;28;20032;-62
2022/12/13 06:25:15;;;;;;;23.35;10.65;;;-4.70;99.90;;;;;;5072829;28;20032;-62
2022/12/13 06:27:40;;;;;;;17.90;9.60;;;-4.70;99.90;;;;;;5093833;28;20033;-63
2022/12/13 06:30:06;;;;;;;26.48;12.35;;;-4.70;99.90;;;;;;5091418;28;20032;-63
2022/12/13 06:32:32;;;;;;;22.95;12.57;;;-4.80;99.90;;;;;;5093795;28;20012;-62
2022/12/13 06:34:57;;;;;;;23.33;12.05;;;-4.70;99.90;;;;;;5072001;28;20040;-62
2022/12/13 06:37:23;;;;;;;31.05;15.02;;;-4.70;99.90;;;;;;5072394;28;20031;-63
2022/12/13 06:39:48;;;;;;;33.55;15.98;;;-4.70;99.90;;;;;;5098717;28;20134;-63
2022/12/13 06:42:16;;;;;;;30.25;15.30;;;-4.70;99.90;;;;;;5096751;28;20949;-62
2022/12/13 06:44:42;;;;;;;32.80;17.10;;;-4.60;99.90;;;;;;5091142;28;20446;-63
2022/12/13 06:47:07;;;;;;;37.45;18.73;;;-4.60;99.90;;;;;;5080112;28;20074;-62
2022/12/13 06:49:33;;;;;;;39.17;19.60;;;-4.50;99.90;;;;;;5093144;27;20016;-63
2022/12/13 06:52:01;;;;;;;50.17;21.90;;;-4.50;99.90;;;;;;5085896;28;20035;-63
2022/12/13 06:54:27;;;;;;;43.58;21.40;;;-4.40;99.90;;;;;;5105762;27;20023;-63
2022/12/13 06:56:52;;;;;;;40.65;19.77;;;-4.40;99.90;;;;;;5107274;28;20024;-63
2022/12/13 06:59:18;;;;;;;39.72;21.23;;;-4.30;99.90;;;;;;5102004;28;20016;-63
2022/12/13 07:01:43;;;;;;;45.47;22.00;;;-4.40;99.90;;;;;;5097278;28;20043;-63
2022/12/13 07:04:10;;;;;;;41.90;20.88;;;-4.30;99.90;;;;;;5101552;28;20036;-63
2022/12/13 07:06:36;;;;;;;43.45;20.88;;;-4.30;99.90;;;;;;5085176;28;20030;-63
2022/12/13 07:09:01;;;;;;;38.80;19.48;;;-4.30;99.90;;;;;;5108880;28;20019;-63
2022/12/13 07:11:29;;;;;;;37.30;18.58;;;-4.30;99.90;;;;;;5103938;28;20481;-63
2022/12/13 07:13:55;;;;;;;42.88;21.13;;;-4.30;99.90;;;;;;5108870;28;20388;-63
2022/12/13 07:16:22;;;;;;;47.72;22.90;;;-4.30;99.90;;;;;;5109478;28;20024;-63
2022/12/13 07:18:56;;;;;;;46.50;24.08;;;-4.20;99.90;;;;;;5112650;28;20085;-63
2022/12/13 07:21:22;;;;;;;44.17;21.77;;;-4.10;99.90;;;;;;5094262;28;20024;-63
2022/12/13 07:23:51;;;;;;;46.63;22.77;;;-4.10;99.90;;;;;;5108225;28;20027;-63
2022/12/13 07:26:18;;;;;;;48.88;22.60;;;-4.10;99.90;;;;;;5113356;28;20535;-63
2022/12/13 07:28:44;;;;;;;46.53;22.80;;;-4.10;99.90;;;;;;5113157;28;20031;-63
2022/12/13 07:31:10;;;;;;;48.03;23.20;;;-4.10;99.90;;;;;;5113346;28;20023;-63
2022/12/13 07:33:36;;;;;;;47.75;23.73;;;-4.10;99.90;;;;;;5113075;28;20024;-62
2022/12/13 07:36:13;;;;;;;53.35;25.02;;;-4.10;99.90;;;;;;5103438;28;20024;-63
2022/12/13 07:38:40;;;;;;;54.08;24.58;;;-4.10;99.90;;;;;;5098187;28;20397;-63
2022/12/13 07:41:06;;;;;;;49.47;23.98;;;-4.00;99.90;;;;;;5113399;28;20074;-62
2022/12/13 07:43:32;;;;;;;49.17;24.42;;;-4.00;99.90;;;;;;5110955;28;20051;-63
2022/12/13 07:46:03;;;;;;;54.20;25.33;;;-4.00;99.90;;;;;;5111137;28;20031;-63
2022/12/13 07:48:29;;;;;;;60.35;28.40;;;-3.90;99.90;;;;;;5093577;28;20178;-65
2022/12/13 07:51:00;;;;;;;51.75;27.70;;;-4.00;99.90;;;;;;5105926;28;20020;-65
2022/12/13 07:53:26;;;;;;;51.22;26.23;;;-3.90;99.90;;;;;;5092806;28;20032;-65
2022/12/13 07:55:51;;;;;;;54.33;26.33;;;-3.90;99.90;;;;;;5092824;28;20385;-65
2022/12/13 07:58:17;;;;;;;58.28;27.70;;;-3.90;99.90;;;;;;5105137;28;20036;-66
2022/12/13 08:00:44;;;;;;;58.47;27.60;;;-3.90;99.90;;;;;;5103840;28;20524;-65
2022/12/13 08:03:10;;;;;;;58.67;28.10;;;-3.80;99.90;;;;;;5100082;28;20027;-66
2022/12/13 08:05:37;;;;;;;56.30;26.88;;;-3.80;99.90;;;;;;5083139;28;20169;-65
2022/12/13 08:08:04;;;;;;;55.85;26.50;;;-3.80;99.90;;;;;;5095797;27;20108;-66
2022/12/13 08:10:31;;;;;;;55.40;27.48;;;-3.80;99.90;;;;;;5109039;28;20008;-65
2022/12/13 08:12:56;;;;;;;51.75;26.00;;;-3.70;99.90;;;;;;5101000;28;20039;-65
2022/12/13 08:15:22;;;;;;;52.42;26.23;;;-3.70;99.90;;;;;;5097542;28;20461;-63
2022/12/13 08:17:48;;;;;;;57.15;26.23;;;-3.60;99.90;;;;;;5106289;28;20020;-64
2022/12/13 08:20:14;;;;;;;53.95;26.02;;;-3.60;99.90;;;;;;5097477;28;20477;-64
2022/12/13 08:22:40;;;;;;;50.67;26.00;;;-3.60;99.90;;;;;;5109787;28;20027;-64
2022/12/13 08:25:07;;;;;;;55.50;25.70;;;-3.60;99.90;;;;;;5106075;28;20146;-65
2022/12/13 08:27:32;;;;;;;60.03;28.50;;;-3.50;99.90;;;;;;5087301;28;20073;-65
2022/12/13 08:29:58;;;;;;;61.33;28.50;;;-3.50;99.90;;;;;;5110135;28;20024;-64
2022/12/13 08:32:23;;;;;;;59.28;27.73;;;-3.50;99.90;;;;;;5108246;28;20423;-65
2022/12/13 08:34:49;;;;;;;56.75;27.63;;;-3.40;99.90;;;;;;5107851;28;20050;-64
2022/12/13 08:37:15;;;;;;;55.03;26.77;;;-3.40;99.90;;;;;;5095077;28;20055;-64
2022/12/13 08:39:41;;;;;;;61.20;29.42;;;-3.30;99.90;;;;;;5079006;28;20041;-64
2022/12/13 08:42:14;;;;;;;57.25;30.13;;;-3.30;99.90;;;;;;5092881;28;20028;-64
2022/12/13 08:44:39;;;;;;;62.38;29.08;;;-3.20;99.90;;;;;;5097518;28;20031;-64
2022/12/13 08:47:05;;;;;;;62.83;29.90;;;-3.20;99.90;;;;;;5094676;28;20072;-64
2022/12/13 08:49:31;;;;;;;57.22;29.15;;;-3.10;99.90;;;;;;5081706;28;20318;-64
2022/12/13 08:51:58;;;;;;;57.03;28.02;;;-3.00;99.90;;;;;;5103151;28;20374;-64
2022/12/13 08:54:24;;;;;;;50.22;25.13;;;-3.00;99.90;;;;;;5104635;28;20060;-63
2022/12/13 08:56:49;;;;;;;59.42;29.88;;;-2.90;99.90;;;;;;5108103;27;20046;-64
2022/12/13 08:59:15;;;;;;;58.75;28.33;;;-2.80;99.90;;;;;;5105078;28;20389;-63
2022/12/13 09:01:40;;;;;;;61.00;29.98;;;-2.80;99.90;;;;;;5092684;28;20092;-64
2022/12/13 09:04:06;;;;;;;61.33;29.55;;;-2.70;99.90;;;;;;5104569;28;20028;-64
2022/12/13 09:06:32;;;;;;;57.78;29.48;;;-2.70;99.90;;;;;;5092547;28;20028;-63
2022/12/13 09:08:57;;;;;;;56.15;27.45;;;-2.70;99.90;;;;;;5103948;28;20023;-64
2022/12/13 09:11:23;;;;;;;56.38;28.77;;;-2.60;99.90;;;;;;5085314;28;20107;-64
2022/12/13 09:13:48;;;;;;;49.53;25.25;;;-2.60;99.90;;;;;;5110860;28;20446;-64
2022/12/13 09:16:24;;;;;;;48.20;26.42;;;-2.50;99.90;;;;;;5100928;28;20023;-63
2022/12/13 09:18:53;;;;;;;47.88;25.00;;;-2.40;99.90;;;;;;5109991;28;20137;-64
2022/12/13 09:21:19;;;;;;;57.30;28.87;;;-2.40;99.90;;;;;;5092349;28;20024;-64
2022/12/13 09:23:45;;;;;;;55.45;27.73;;;-2.40;99.90;;;;;;5107397;28;20084;-64
2022/12/13 09:26:12;;;;;;;51.92;26.23;;;-2.30;99.90;;;;;;5103487;28;20034;-64
2022/12/13 09:28:38;;;;;;;52.50;27.45;;;-2.30;99.90;;;;;;5108147;28;20077;-64
2022/12/13 09:31:08;;;;;;;48.35;25.30;;;-2.30;99.90;;;;;;5112265;28;20016;-63
2022/12/13 09:33:34;;;;;;;55.60;27.58;;;-2.20;99.90;;;;;;5107432;28;20016;-63
2022/12/13 09:36:04;;;;;;;53.60;28.95;;;-2.10;99.90;;;;;;5102984;28;20051;-63
2022/12/13 09:38:30;;;;;;;56.00;29.90;;;-2.00;99.90;;;;;;5107977;28;20024;-64
2022/12/13 09:40:58;;;;;;;51.70;27.77;;;-2.00;99.90;;;;;;5101551;28;20484;-64
2022/12/13 09:43:30;;;;;;;60.05;29.05;;;-1.90;99.90;;;;;;5113874;28;20047;-64
2022/12/13 09:45:56;;;;;;;48.33;25.27;;;-1.90;99.90;;;;;;5111172;28;20064;-65
2022/12/13 09:48:22;;;;;;;54.38;27.25;;;-1.80;99.90;;;;;;5112573;28;20020;-64
2022/12/13 09:50:48;;;;;;;56.30;25.67;;;-1.80;99.90;;;;;;5112186;28;20356;-64
2022/12/13 09:53:17;;;;;;;51.42;26.15;;;-1.70;99.90;;;;;;5110680;28;20434;-65
2022/12/13 09:55:48;;;;;;;49.85;25.25;;;-1.70;99.90;;;;;;5112339;28;20018;-65
2022/12/13 09:58:22;;;;;;;47.75;26.50;;;-1.60;99.90;;;;;;5113385;28;20484;-64
2022/12/13 10:00:51;;;;;;;49.20;25.88;;;-1.60;99.90;;;;;;5109570;28;20110;-64
2022/12/13 10:03:18;;;;;;;49.87;26.47;;;-1.60;99.90;;;;;;5092830;28;20024;-64
2022/12/13 10:05:52;;;;;;;54.55;27.33;;;-1.40;99.90;;;;;;5111823;28;20043;-64
2022/12/13 10:08:26;;;;;;;46.55;26.10;;;-1.30;99.90;;;;;;5111434;28;20030;-63
2022/12/13 10:10:54;;;;;;;42.85;23.90;;;-1.20;99.90;;;;;;5111383;28;20333;-65
2022/12/13 10:13:52;;;;;;;48.58;26.20;;;-1.20;99.90;;;;;;5105711;28;20024;-64
2022/12/13 10:16:33;;;;;;;46.35;25.23;;;-1.00;99.90;;;;;;5084452;28;20400;-63
2022/12/13 10:19:00;;;;;;;41.70;25.08;;;-0.90;99.90;;;;;;5112369;28;20412;-64
2022/12/13 10:21:39;;;;;;;48.90;26.42;;;-0.80;99.90;;;;;;5095486;28;20020;-64
2022/12/13 10:24:29;;;;;;;52.88;28.52;;;-0.90;99.90;;;;;;5094911;28;20501;-63
2022/12/13 10:27:10;;;;;;;54.22;26.75;;;-0.80;99.90;;;;;;5104904;28;20047;-64
2022/12/13 10:29:59;;;;;;;49.45;25.30;;;-0.80;99.90;;;;;;5100342;28;20148;-63
2022/12/13 10:32:24;;;;;;;53.13;28.27;;;-0.70;99.90;;;;;;5105918;28;20020;-63
2022/12/13 10:34:50;;;;;;;55.60;29.55;;;-0.70;99.90;;;;;;5113247;28;20274;-63
2022/12/13 10:37:27;;;;;;;63.55;30.00;;;-0.70;99.90;;;;;;5119763;27;20480;-64
2022/12/13 10:39:53;;;;;;;56.60;30.27;;;-0.70;99.90;;;;;;5113263;28;20015;-65
2022/12/13 10:42:20;;;;;;;51.63;27.08;;;-0.50;99.90;;;;;;5111669;28;20492;-64
2022/12/13 10:44:47;;;;;;;47.30;27.33;;;-0.40;99.90;;;;;;5099111;28;20072;-64
2022/12/13 10:47:17;;;;;;;49.47;27.27;;;-0.30;99.90;;;;;;5104649;28;20122;-64
2022/12/13 10:49:50;;;;;;;44.13;23.38;;;-0.30;99.90;;;;;;5109592;28;20091;-64
2022/12/13 10:52:23;;;;;;;42.63;22.98;;;-0.10;99.90;;;;;;5095111;28;20028;-64
2022/12/13 10:54:50;;;;;;;41.33;23.25;;;-0.10;99.90;;;;;;5108091;28;20024;-64
2022/12/13 10:57:17;;;;;;;41.67;22.90;;;0.10;99.90;;;;;;5103749;28;20216;-65
2022/12/13 10:59:44;;;;;;;45.65;24.10;;;0.40;99.90;;;;;;5097335;28;20039;-65
2022/12/13 11:02:31;;;;;;;37.75;22.02;;;0.50;99.90;;;;;;5111021;28;20032;-65
2022/12/13 11:04:58;;;;;;;39.45;21.80;;;0.60;99.90;;;;;;5107735;28;20397;-65
2022/12/13 11:07:30;;;;;;;38.17;22.55;;;0.60;99.90;;;;;;5094163;28;20027;-64
2022/12/13 11:09:57;;;;;;;40.72;23.00;;;0.60;99.90;;;;;;5094372;28;20156;-65
2022/12/13 11:12:25;;;;;;;38.33;21.27;;;0.60;99.90;;;;;;5106794;28;20028;-64
2022/12/13 11:15:05;;;;;;;37.10;21.60;;;0.80;99.90;;;;;;5109205;28;20024;-65
2022/12/13 11:17:35;;;;;;;36.03;20.93;;;0.90;99.90;;;;;;5103521;28;20082;-65
2022/12/13 11:20:03;;;;;;;;;;;1.00;99.90;;;;;;5107929;27;20031;-65
2022/12/13 11:22:32;;;;;;;39.95;20.98;;;1.60;99.90;;;;;;5106515;27;19908;-64
2022/12/13 11:25:02;;;;;;;33.95;19.08;;;2.10;99.90;;;;;;5107641;27;20031;-64
2022/12/13 11:27:55;;;;;;;31.88;19.65;;;2.80;99.90;;;;;;5108313;28;20114;-64
2022/12/13 11:30:29;;;;;;;35.42;20.65;;;3.40;99.30;;;;;;5106355;28;20077;-65
2022/12/13 11:33:20;;;;;;;32.42;19.85;;;3.80;97.60;;;;;;5108233;27;20413;-65
2022/12/13 11:36:22;;;;;;;29.40;18.67;;;3.70;95.30;;;;;;5104816;27;20115;-65
2022/12/13 11:39:14;;;;;;;36.35;20.38;;;3.80;95.50;;;;;;5111553;28;20023;-64
2022/12/13 11:42:03;;;;;;;33.15;20.10;;;3.40;92.90;;;;;;5107971;28;20469;-64
2022/12/13 11:44:42;;;;;;;27.60;16.38;;;3.10;93.10;;;;;;5106551;28;20085;-65
2022/12/13 11:47:15;;;;;;;24.13;15.25;;;3.60;94.40;;;;;;5110374;28;20413;-65
2022/12/13 11:49:44;;;;;;;24.70;15.23;;;4.40;94.90;;;;;;5095951;28;20032;-65
2022/12/13 11:52:22;;;;;;;24.57;15.33;;;4.90;93.90;;;;;;5093520;28;20020;-64
2022/12/13 11:54:58;;;;;;;21.25;13.82;;;5.20;93.50;;;;;;5106915;28;20107;-65
2022/12/13 11:57:45;;;;;;;23.33;14.23;;;5.40;93.40;;;;;;5093513;28;20031;-64
2022/12/13 12:00:28;;;;;;;20.30;12.57;;;5.50;93.10;;;;;;5093159;28;20030;-64
2022/12/13 12:03:05;;;;;;;28.30;17.33;;;5.80;93.20;;;;;;5094296;28;21159;-65
2022/12/13 12:05:34;;;;;;;38.35;21.35;;;5.50;91.10;;;;;;5112516;28;20454;-64
2022/12/13 12:08:11;;;;;;;32.97;20.52;;;5.10;88.70;;;;;;5112805;28;20027;-64
2022/12/13 12:10:40;;;;;;;30.63;18.38;;;4.70;88.90;;;;;;5107934;28;20061;-64
2022/12/13 12:13:24;;;;;;;25.58;15.80;;;4.50;89.20;;;;;;5090821;28;20020;-64
2022/12/13 12:16:16;;;;;;;23.17;14.40;;;4.50;90.10;;;;;;5108933;28;21281;-64
2022/12/13 12:18:42;;;;;;;25.58;15.55;;;4.70;90.50;;;;;;5104105;28;20047;-64
2022/12/13 12:21:19;;;;;;;25.75;14.93;;;4.90;90.30;;;;;;5108753;28;20113;-65
2022/12/13 12:24:04;;;;;;;21.98;13.82;;;5.20;90.40;;;;;;5089784;28;20050;-64
2022/12/13 12:27:14;;;;;;;21.92;13.55;;;5.50;90.10;;;;;;5101235;28;20047;-64
2022/12/13 12:29:55;;;;;;;21.70;13.93;;;5.70;90.00;;;;;;5104137;28;20020;-64
2022/12/13 12:32:26;;;;;;;20.70;13.13;;;6.20;90.10;;;;;;5105811;28;20031;-64
2022/12/13 12:35:01;;;;;;;21.10;13.10;;;6.90;89.20;;;;;;5055159;28;20744;-65
2022/12/13 12:37:58;;;;;;;19.10;12.52;;;7.80;88.10;;;;;;5069070;28;20028;-64
2022/12/13 12:40:54;;;;;;;17.90;12.13;;;9.00;86.20;;;;;;5036048;28;20104;-64
2022/12/13 12:43:31;;;;;;;17.15;12.48;;;10.00;83.90;;;;;;5044196;28;20018;-65
2022/12/13 12:46:14;;;;;;;20.67;13.20;;;10.70;82.00;;;;;;5029438;28;20025;-64
2022/12/13 12:48:51;;;;;;;24.00;14.80;;;11.50;79.60;;;;;;5029418;28;20022;-64
2022/12/13 12:51:49;;;;;;;20.88;15.00;;;12.00;74.00;;;;;;5061466;28;20134;-64